Aviation Digital Data Service (ADDS)

Output produced by METARs form (0215 UTC 23 December 2014)
found at http://aviationweather.gov/adds/metars/
 
KLCH 230053Z 23007KT 9SM OVC005 18/17 A2966 RMK AO2 SLP052 T01830172